createdAt,value
2023-05-02T00:02:00.169Z,28.40
2023-05-02T00:04:48.294Z,28.50
2023-05-02T00:07:36.094Z,28.60
2023-05-02T00:10:25.041Z,28.60
2023-05-02T00:13:12.810Z,28.70
2023-05-02T00:16:00.829Z,28.70
2023-05-02T00:18:48.572Z,28.80
2023-05-02T00:21:36.543Z,28.90
2023-05-02T00:24:24.307Z,28.90
2023-05-02T00:27:12.524Z,29.00
2023-05-02T00:30:00.891Z,29.00
2023-05-02T00:32:49.390Z,29.00
2023-05-02T00:35:20.016Z,29.10
2023-05-02T00:37:49.043Z,29.20
2023-05-02T00:40:32.158Z,29.30
2023-05-02T00:43:01.509Z,29.30
2023-05-02T00:45:30.378Z,29.40
2023-05-02T00:48:02.100Z,29.40
2023-05-02T00:50:30.571Z,29.40
2023-05-02T00:52:59.112Z,29.50
2023-05-02T00:55:27.160Z,29.50
2023-05-02T00:57:55.306Z,29.60
2023-05-02T01:00:23.221Z,29.70
2023-05-02T01:02:51.452Z,29.70
2023-05-02T01:05:19.188Z,29.80
2023-05-02T01:07:46.837Z,29.80
2023-05-02T01:10:15.353Z,29.90
2023-05-02T01:12:43.417Z,29.90
2023-05-02T01:15:11.008Z,30.10
2023-05-02T01:17:38.796Z,30.20
2023-05-02T01:20:06.824Z,30.20
2023-05-02T01:22:34.548Z,30.30
2023-05-02T01:25:02.374Z,30.30
2023-05-02T01:27:30.212Z,30.30
2023-05-02T01:29:58.238Z,30.40
2023-05-02T01:32:26.064Z,30.40
2023-05-02T01:34:53.873Z,30.50
2023-05-02T01:37:21.572Z,30.60
2023-05-02T01:39:49.372Z,30.70
2023-05-02T01:42:17.229Z,30.70
2023-05-02T01:44:44.794Z,30.80
2023-05-02T01:47:12.752Z,30.80
2023-05-02T01:49:40.445Z,30.90
2023-05-02T01:52:07.966Z,31.00
2023-05-02T01:54:36.080Z,31.00
2023-05-02T01:57:06.685Z,31.00
2023-05-02T01:59:34.243Z,31.10
2023-05-02T02:02:02.082Z,31.20
2023-05-02T02:04:29.974Z,31.30
2023-05-02T02:06:57.597Z,31.30
2023-05-02T02:09:26.059Z,31.40
2023-05-02T02:11:53.680Z,31.40
2023-05-02T02:14:21.225Z,31.40
2023-05-02T02:16:49.208Z,31.50
2023-05-02T02:19:17.060Z,31.60
2023-05-02T02:21:44.677Z,31.70
2023-05-02T02:24:12.562Z,31.80
2023-05-02T02:26:40.521Z,31.80
2023-05-02T02:29:08.150Z,31.90
2023-05-02T02:31:36.510Z,31.90
2023-05-02T02:34:04.500Z,31.80
2023-05-02T02:36:32.658Z,31.80
2023-05-02T02:39:00.676Z,31.90
2023-05-02T02:41:28.765Z,32.00
2023-05-02T02:43:56.375Z,32.00
2023-05-02T02:46:24.329Z,32.20
2023-05-02T02:48:52.418Z,32.20
2023-05-02T02:51:20.076Z,32.20
2023-05-02T02:53:48.794Z,32.30
2023-05-02T02:56:16.630Z,32.30
2023-05-02T02:58:44.678Z,32.40
2023-05-02T03:01:13.338Z,32.40
2023-05-02T03:03:42.564Z,32.60
2023-05-02T03:06:10.425Z,32.70
2023-05-02T03:08:38.566Z,32.80
2023-05-02T03:11:06.335Z,32.80
2023-05-02T03:13:34.023Z,32.80
2023-05-02T03:16:02.292Z,33.00
2023-05-02T03:18:42.861Z,33.00
2023-05-02T03:21:10.872Z,33.00
2023-05-02T03:23:38.608Z,33.30
2023-05-02T03:26:06.319Z,33.50
2023-05-02T03:28:34.235Z,33.70
2023-05-02T03:31:01.792Z,33.40
2023-05-02T03:33:29.547Z,33.30
2023-05-02T03:35:57.468Z,33.40
2023-05-02T03:38:25.709Z,33.50
2023-05-02T03:40:53.442Z,33.50
2023-05-02T03:43:21.401Z,33.50
2023-05-02T03:45:49.019Z,33.60
2023-05-02T03:48:16.614Z,33.80
2023-05-02T03:50:44.976Z,33.80
2023-05-02T03:53:12.767Z,33.90
2023-05-02T03:55:40.364Z,33.80
2023-05-02T03:58:09.034Z,33.60
2023-05-02T04:00:36.819Z,33.70
2023-05-02T04:03:04.431Z,34.10
2023-05-02T04:05:32.385Z,34.20
2023-05-02T04:08:00.121Z,34.30
2023-05-02T04:10:28.683Z,34.20
2023-05-02T04:12:56.585Z,34.40
2023-05-02T04:15:24.217Z,34.40
2023-05-02T04:17:51.924Z,34.30
2023-05-02T04:20:20.397Z,34.40
2023-05-02T04:22:48.198Z,34.50
2023-05-02T04:25:16.117Z,34.60
2023-05-02T04:27:44.032Z,34.70
2023-05-02T04:30:11.855Z,34.60
2023-05-02T04:32:39.532Z,34.60
2023-05-02T04:35:08.198Z,34.60
2023-05-02T04:37:36.041Z,34.70
2023-05-02T04:40:03.583Z,34.90
2023-05-02T04:42:31.470Z,35.00
2023-05-02T04:44:59.286Z,34.90
2023-05-02T04:47:27.584Z,34.80
2023-05-02T04:49:55.792Z,34.90
2023-05-02T04:52:23.427Z,34.80
2023-05-02T04:54:51.006Z,34.90
2023-05-02T04:57:20.884Z,35.10
2023-05-02T04:59:49.690Z,35.10
2023-05-02T05:02:17.751Z,35.20
2023-05-02T05:04:47.216Z,35.10
2023-05-02T05:07:23.073Z,35.20
2023-05-02T05:09:53.441Z,35.10
2023-05-02T05:12:23.085Z,35.10
2023-05-02T05:14:50.887Z,35.10
2023-05-02T05:17:18.855Z,35.20
2023-05-02T05:19:46.480Z,35.30
2023-05-02T05:22:14.332Z,35.50
2023-05-02T05:24:43.114Z,35.40
2023-05-02T05:27:11.161Z,35.30
2023-05-02T05:29:39.064Z,35.20
2023-05-02T05:32:07.080Z,35.20
2023-05-02T05:34:35.217Z,35.20
2023-05-02T05:37:02.813Z,35.30
2023-05-02T05:39:31.362Z,35.30
2023-05-02T05:41:58.931Z,35.60
2023-05-02T05:44:26.614Z,35.70
2023-05-02T05:46:55.083Z,35.80
2023-05-02T05:49:23.004Z,35.80
2023-05-02T05:51:50.732Z,35.70
2023-05-02T05:54:22.628Z,35.80
2023-05-02T05:56:50.411Z,36.00
2023-05-02T05:59:19.035Z,35.90
2023-05-02T06:01:46.958Z,35.80
2023-05-02T06:04:14.597Z,36.20
2023-05-02T06:06:42.280Z,36.30
2023-05-02T06:09:10.947Z,36.20
2023-05-02T06:11:38.819Z,36.20
2023-05-02T06:14:06.388Z,36.20
2023-05-02T06:16:36.904Z,36.20
2023-05-02T06:19:04.622Z,36.30
2023-05-02T06:21:33.900Z,36.20
2023-05-02T06:24:05.113Z,36.40
2023-05-02T06:26:37.222Z,36.30
2023-05-02T06:29:05.224Z,36.30
2023-05-02T06:31:33.289Z,36.30
2023-05-02T06:34:00.931Z,36.20
2023-05-02T06:36:28.695Z,36.40
2023-05-02T06:38:57.570Z,36.50
2023-05-02T06:41:29.067Z,36.50
2023-05-02T06:43:56.608Z,36.40
2023-05-02T06:46:25.142Z,36.40
2023-05-02T06:48:52.762Z,36.50
2023-05-02T06:51:20.617Z,36.30
2023-05-02T06:53:48.632Z,36.60
2023-05-02T06:56:16.201Z,36.80
2023-05-02T06:58:43.777Z,36.80
2023-05-02T07:01:12.294Z,36.70
2023-05-02T07:03:39.941Z,37.10
2023-05-02T07:06:07.717Z,37.10
2023-05-02T07:08:35.755Z,37.00
2023-05-02T07:11:03.377Z,37.00
2023-05-02T07:16:17.722Z,37.10
2023-05-02T07:18:45.673Z,37.20
2023-05-02T07:21:13.508Z,37.30
2023-05-02T07:23:41.031Z,37.30
2023-05-02T07:26:09.580Z,37.30
2023-05-02T07:31:38.199Z,37.30
2023-05-02T07:34:05.943Z,37.30
2023-05-02T07:39:15.485Z,37.20
2023-05-02T07:41:44.090Z,37.30
2023-05-02T07:44:11.656Z,37.10
2023-05-02T07:46:39.712Z,37.10
2023-05-02T07:49:07.541Z,37.20
2023-05-02T07:51:35.209Z,37.10
2023-05-02T07:54:03.255Z,37.30
2023-05-02T07:56:32.928Z,37.30
2023-05-02T07:59:00.503Z,37.20
2023-05-02T08:01:30.762Z,37.10
2023-05-02T08:03:59.879Z,37.10
2023-05-02T08:06:27.732Z,37.10
2023-05-02T08:08:55.821Z,36.90
2023-05-02T08:11:23.962Z,36.90
2023-05-02T08:13:51.564Z,36.80
2023-05-02T08:16:19.829Z,36.60
2023-05-02T08:18:47.364Z,36.40
2023-05-02T08:21:14.938Z,36.40
2023-05-02T08:23:43.878Z,36.50
2023-05-02T08:26:11.418Z,36.50
2023-05-02T08:28:40.434Z,36.50
2023-05-02T08:31:08.399Z,36.50
2023-05-02T08:33:36.048Z,36.50
2023-05-02T08:36:03.555Z,36.40
2023-05-02T08:38:32.017Z,36.40
2023-05-02T08:40:59.631Z,36.30
2023-05-02T08:43:27.299Z,36.30
2023-05-02T08:45:55.448Z,36.30
2023-05-02T08:48:23.097Z,36.20
2023-05-02T08:50:50.649Z,36.20
2023-05-02T08:53:19.409Z,36.40
2023-05-02T08:55:47.438Z,36.40
2023-05-02T08:58:16.242Z,36.30
2023-05-02T09:00:45.835Z,36.30
2023-05-02T09:03:13.706Z,36.30
2023-05-02T09:05:41.267Z,36.20
2023-05-02T09:08:09.749Z,36.10
2023-05-02T09:10:51.601Z,36.10
2023-05-02T09:13:20.438Z,36.20
2023-05-02T09:15:48.989Z,36.10
2023-05-02T09:18:16.492Z,36.00
2023-05-02T09:20:44.461Z,35.90
2023-05-02T09:23:11.961Z,35.80
2023-05-02T09:25:39.548Z,35.60
2023-05-02T09:28:07.634Z,35.60
2023-05-02T09:30:35.563Z,35.40
2023-05-02T09:33:03.196Z,35.40
2023-05-02T09:35:32.268Z,35.40
2023-05-02T09:37:59.993Z,35.30
2023-05-02T09:40:27.583Z,35.20
2023-05-02T09:42:56.476Z,35.20
2023-05-02T09:45:24.105Z,35.10
2023-05-02T09:47:51.761Z,35.10
2023-05-02T09:50:19.744Z,35.00
2023-05-02T09:52:47.285Z,35.00
2023-05-02T09:55:14.786Z,35.00
2023-05-02T09:57:43.787Z,34.90
2023-05-02T10:00:11.631Z,34.90
2023-05-02T10:02:43.977Z,35.00
2023-05-02T10:05:12.911Z,35.00
2023-05-02T10:07:40.472Z,35.00
2023-05-02T10:10:08.053Z,35.00
2023-05-02T10:12:36.882Z,34.90
2023-05-02T10:15:04.419Z,34.80
2023-05-02T10:17:32.357Z,34.80
2023-05-02T10:20:00.439Z,34.70
2023-05-02T10:22:28.504Z,34.70
2023-05-02T10:24:56.056Z,34.70
2023-05-02T10:27:24.646Z,34.60
2023-05-02T10:29:52.164Z,34.60
2023-05-02T10:32:19.661Z,34.50
2023-05-02T10:34:47.576Z,34.50
2023-05-02T10:37:15.223Z,34.50
2023-05-02T10:39:42.795Z,34.50
2023-05-02T10:42:10.915Z,34.40
2023-05-02T10:44:38.394Z,34.40
2023-05-02T10:47:06.051Z,34.20
2023-05-02T10:49:34.216Z,34.20
2023-05-02T10:52:01.780Z,34.20
2023-05-02T10:54:29.392Z,34.10
2023-05-02T10:56:57.324Z,34.10
2023-05-02T10:59:24.892Z,34.00
2023-05-02T11:01:52.418Z,34.00
2023-05-02T11:04:20.711Z,33.90
2023-05-02T11:06:48.399Z,33.90
2023-05-02T11:09:16.061Z,33.80
2023-05-02T11:11:44.454Z,33.80
2023-05-02T11:14:12.744Z,33.80
2023-05-02T11:16:41.266Z,33.70
2023-05-02T11:19:10.873Z,33.70
2023-05-02T11:21:39.717Z,33.60
2023-05-02T11:24:07.340Z,33.50
2023-05-02T11:26:35.327Z,33.40
2023-05-02T11:29:02.905Z,33.50
2023-05-02T11:31:30.461Z,33.40
2023-05-02T11:33:58.891Z,33.30
2023-05-02T11:36:26.556Z,33.30
2023-05-02T11:38:54.097Z,33.20
2023-05-02T11:41:22.279Z,33.20
2023-05-02T11:43:49.813Z,33.10
2023-05-02T11:46:17.464Z,33.10
2023-05-02T11:48:45.589Z,33.10
2023-05-02T11:51:13.072Z,33.10
2023-05-02T11:53:40.653Z,33.00
2023-05-02T11:56:09.576Z,33.00
2023-05-02T11:58:37.115Z,32.90
2023-05-02T12:01:04.682Z,33.00
2023-05-02T12:03:32.716Z,32.80
2023-05-02T12:06:00.527Z,32.80
2023-05-02T12:08:28.093Z,32.80
2023-05-02T12:10:56.036Z,32.80
2023-05-02T12:13:24.154Z,32.80
2023-05-02T12:15:51.692Z,32.80
2023-05-02T12:18:21.509Z,32.70
2023-05-02T12:20:49.680Z,32.70
2023-05-02T12:23:17.234Z,32.60
2023-05-02T12:25:45.239Z,32.50
2023-05-02T12:28:12.809Z,32.50
2023-05-02T12:30:40.363Z,32.50
2023-05-02T12:33:09.128Z,32.60
2023-05-02T12:35:36.743Z,32.50
2023-05-02T12:38:04.255Z,32.50
2023-05-02T12:40:32.587Z,32.40
2023-05-02T12:43:00.222Z,32.50
2023-05-02T12:45:27.733Z,32.50
2023-05-02T12:47:55.746Z,32.50
2023-05-02T12:50:23.364Z,32.40
2023-05-02T12:52:50.857Z,32.30
2023-05-02T12:55:19.341Z,32.30
2023-05-02T12:57:46.908Z,32.30
2023-05-02T13:00:14.456Z,32.20
2023-05-02T13:02:42.621Z,32.20
2023-05-02T13:05:10.228Z,32.10
2023-05-02T13:07:37.807Z,32.10
2023-05-02T13:10:10.038Z,32.10
2023-05-02T13:12:37.643Z,32.10
2023-05-02T13:15:05.412Z,32.10
2023-05-02T13:17:33.574Z,32.00
2023-05-02T13:20:02.288Z,32.00
2023-05-02T13:22:41.684Z,32.00
2023-05-02T13:25:10.257Z,32.00
2023-05-02T13:27:38.054Z,32.00
2023-05-02T13:30:08.794Z,32.00
2023-05-02T13:32:38.178Z,32.00
2023-05-02T13:35:06.082Z,31.90
2023-05-02T13:37:33.618Z,31.90
2023-05-02T13:40:01.635Z,31.80
2023-05-02T13:42:29.547Z,31.80
2023-05-02T13:44:57.246Z,31.80
2023-05-02T13:47:25.697Z,31.80
2023-05-02T13:49:53.469Z,31.80
2023-05-02T13:52:21.139Z,31.80
2023-05-02T13:54:48.999Z,31.70
2023-05-02T13:57:16.719Z,31.60
2023-05-02T13:59:44.412Z,31.70
2023-05-02T14:02:12.575Z,31.70
2023-05-02T14:04:40.169Z,31.70
2023-05-02T14:07:07.770Z,31.50
2023-05-02T14:09:36.423Z,31.50
2023-05-02T14:12:04.269Z,31.50
2023-05-02T14:14:31.876Z,31.50
2023-05-02T14:17:00.385Z,31.40
2023-05-02T14:19:27.982Z,31.30
2023-05-02T14:21:55.522Z,31.30
2023-05-02T14:24:24.006Z,31.30
2023-05-02T14:26:51.761Z,31.20
2023-05-02T14:29:19.418Z,31.20
2023-05-02T14:31:48.587Z,31.30
2023-05-02T14:34:16.394Z,31.20
2023-05-02T14:36:43.919Z,31.10
2023-05-02T14:39:11.759Z,31.10
2023-05-02T14:41:39.504Z,31.10
2023-05-02T14:44:07.514Z,31.20
2023-05-02T14:46:37.629Z,31.20
2023-05-02T14:49:05.682Z,31.10
2023-05-02T14:51:33.401Z,31.10
2023-05-02T14:54:01.298Z,31.00
2023-05-02T14:56:32.807Z,31.10
2023-05-02T14:59:00.662Z,31.00
2023-05-02T15:01:29.606Z,31.00
2023-05-02T15:04:06.578Z,31.00
2023-05-02T15:06:36.462Z,31.00
2023-05-02T15:09:04.522Z,31.00
2023-05-02T15:11:32.577Z,31.10
2023-05-02T15:14:01.646Z,31.00
2023-05-02T15:16:29.456Z,31.00
2023-05-02T15:19:05.925Z,31.00
2023-05-02T15:21:34.090Z,31.00
2023-05-02T15:24:01.801Z,30.90
2023-05-02T15:26:29.620Z,31.00
2023-05-02T15:28:58.301Z,30.90
2023-05-02T15:31:25.929Z,30.80
2023-05-02T15:33:53.466Z,30.80
2023-05-02T15:36:22.083Z,30.80
2023-05-02T15:38:49.696Z,30.70
2023-05-02T15:41:17.263Z,30.60
2023-05-02T15:43:45.897Z,30.70
2023-05-02T15:46:13.697Z,30.60
2023-05-02T15:48:41.310Z,30.60
2023-05-02T15:51:09.946Z,30.60
2023-05-02T15:53:37.523Z,30.50
2023-05-02T15:56:05.315Z,30.60
2023-05-02T15:58:34.188Z,30.60
2023-05-02T16:01:01.717Z,30.60
2023-05-02T16:03:29.356Z,30.60
2023-05-02T16:05:57.591Z,30.50
2023-05-02T16:08:25.174Z,30.50
2023-05-02T16:10:52.785Z,30.50
2023-05-02T16:13:20.824Z,30.50
2023-05-02T16:15:48.528Z,30.50
2023-05-02T16:18:16.852Z,30.50
2023-05-02T16:20:45.663Z,30.40
2023-05-02T16:23:13.228Z,30.40
2023-05-02T16:25:40.887Z,30.30
2023-05-02T16:28:09.749Z,30.40
2023-05-02T16:30:37.225Z,30.40
2023-05-02T16:33:04.840Z,30.40
2023-05-02T16:35:33.562Z,30.40
2023-05-02T16:38:01.110Z,30.30
2023-05-02T16:40:28.634Z,30.40
2023-05-02T16:42:56.889Z,30.30
2023-05-02T16:45:24.380Z,30.20
2023-05-02T16:47:51.915Z,30.20
2023-05-02T16:50:20.409Z,30.20
2023-05-02T16:52:47.998Z,30.30
2023-05-02T16:55:15.532Z,30.20
2023-05-02T16:57:43.459Z,30.30
2023-05-02T17:00:11.222Z,30.30
2023-05-02T17:02:39.597Z,30.30
2023-05-02T17:05:08.360Z,30.30
2023-05-02T17:07:35.913Z,30.30
2023-05-02T17:10:04.060Z,30.30
2023-05-02T17:12:32.995Z,30.20
2023-05-02T17:15:02.110Z,30.20
2023-05-02T17:17:30.539Z,30.00
2023-05-02T17:19:59.407Z,30.00
2023-05-02T17:22:27.166Z,30.10
2023-05-02T17:24:54.886Z,30.10
2023-05-02T17:27:22.813Z,30.00
2023-05-02T17:29:50.387Z,30.00
2023-05-02T17:32:18.243Z,30.00
2023-05-02T17:34:46.268Z,30.00
2023-05-02T17:37:13.880Z,29.90
2023-05-02T17:39:41.410Z,30.00
2023-05-02T17:42:09.459Z,30.00
2023-05-02T17:44:37.052Z,30.00
2023-05-02T17:47:04.577Z,30.10
2023-05-02T17:49:32.706Z,30.20
2023-05-02T17:52:00.289Z,30.10
2023-05-02T17:54:27.881Z,30.10
2023-05-02T17:56:56.360Z,30.20
2023-05-02T17:59:23.952Z,30.00
2023-05-02T18:01:56.772Z,30.00
2023-05-02T18:04:26.325Z,30.20
2023-05-02T18:06:54.592Z,30.20
2023-05-02T18:09:22.575Z,30.20
2023-05-02T18:11:52.670Z,30.10
2023-05-02T18:14:20.484Z,30.00
2023-05-02T18:16:49.176Z,29.90
2023-05-02T18:19:17.351Z,29.90
2023-05-02T18:21:46.216Z,29.80
2023-05-02T18:24:15.752Z,29.80
2023-05-02T18:26:43.800Z,29.70
2023-05-02T18:29:11.355Z,29.70
2023-05-02T18:31:39.174Z,29.70
2023-05-02T18:34:06.943Z,29.70
2023-05-02T18:36:34.512Z,29.60
2023-05-02T18:39:02.110Z,29.60
2023-05-02T18:41:29.882Z,29.60
2023-05-02T18:43:58.771Z,29.60
2023-05-02T18:46:28.137Z,29.60
2023-05-02T18:48:56.101Z,29.50
2023-05-02T18:51:23.660Z,29.50
2023-05-02T18:53:57.962Z,29.50
2023-05-02T18:56:25.738Z,29.50
2023-05-02T18:58:53.456Z,29.50
2023-05-02T19:01:21.862Z,29.40
2023-05-02T19:03:49.622Z,29.40
2023-05-02T19:06:17.336Z,29.40
2023-05-02T19:08:45.095Z,29.50
2023-05-02T19:11:12.775Z,29.50
2023-05-02T19:13:40.308Z,29.40
2023-05-02T19:19:01.894Z,29.30
2023-05-02T19:21:29.712Z,29.30
2023-05-02T19:23:57.280Z,29.30
2023-05-02T19:26:25.044Z,29.30
2023-05-02T19:28:52.662Z,29.30
2023-05-02T19:31:20.387Z,29.20
2023-05-02T19:33:48.255Z,29.20
2023-05-02T19:36:15.949Z,29.20
2023-05-02T19:38:43.500Z,29.20
2023-05-02T19:41:11.263Z,29.10
2023-05-02T19:43:38.880Z,29.20
2023-05-02T19:46:06.642Z,29.20
2023-05-02T19:48:34.559Z,29.20
2023-05-02T19:51:02.151Z,29.10
2023-05-02T19:53:29.701Z,29.10
2023-05-02T19:55:57.384Z,29.20
2023-05-02T19:58:24.933Z,29.20
2023-05-02T20:00:52.579Z,29.10
2023-05-02T20:03:20.422Z,29.00
2023-05-02T20:05:48.178Z,29.00
2023-05-02T20:08:15.784Z,29.00
2023-05-02T20:10:43.413Z,29.00
2023-05-02T20:13:11.059Z,29.00
2023-05-02T20:15:38.655Z,29.00
2023-05-02T20:18:06.559Z,28.80
2023-05-02T20:20:35.894Z,28.90
2023-05-02T20:23:04.528Z,28.90
2023-05-02T20:25:32.769Z,28.90
2023-05-02T20:28:00.485Z,28.80
2023-05-02T20:30:28.041Z,28.80
2023-05-02T20:32:59.487Z,28.80
2023-05-02T20:35:39.881Z,28.80
2023-05-02T20:38:07.783Z,28.80
2023-05-02T20:40:35.307Z,28.80
2023-05-02T20:43:03.017Z,28.90
2023-05-02T20:45:30.891Z,28.90
2023-05-02T20:47:58.466Z,28.90
2023-05-02T20:50:26.376Z,29.00
2023-05-02T20:52:54.094Z,28.80
2023-05-02T20:55:21.662Z,28.80
2023-05-02T20:57:49.305Z,28.80
2023-05-02T21:00:16.877Z,28.90
2023-05-02T21:02:44.448Z,28.80
2023-05-02T21:05:12.258Z,28.80
2023-05-02T21:07:39.838Z,28.70
2023-05-02T21:10:07.392Z,28.70
2023-05-02T21:12:35.427Z,28.70
2023-05-02T21:15:03.034Z,28.70
2023-05-02T21:17:30.616Z,28.70
2023-05-02T21:19:58.333Z,28.70
2023-05-02T21:22:25.925Z,28.60
2023-05-02T21:24:53.516Z,28.60
2023-05-02T21:27:21.300Z,28.50
2023-05-02T21:29:48.991Z,28.60
2023-05-02T21:32:16.529Z,28.50
2023-05-02T21:34:45.369Z,28.60
2023-05-02T21:37:15.783Z,28.50
2023-05-02T21:39:54.378Z,28.50
2023-05-02T21:42:22.163Z,28.50
2023-05-02T21:44:49.813Z,28.50
2023-05-02T21:47:18.958Z,28.50
2023-05-02T21:49:47.113Z,28.50
2023-05-02T21:52:15.576Z,28.50
2023-05-02T21:54:44.347Z,28.50
2023-05-02T21:57:12.517Z,28.50
2023-05-02T21:59:40.091Z,28.50
2023-05-02T22:02:08.985Z,28.50
2023-05-02T22:04:38.217Z,28.30
2023-05-02T22:07:07.344Z,28.20
2023-05-02T22:09:34.944Z,28.30
2023-05-02T22:12:02.678Z,28.30
2023-05-02T22:14:37.550Z,28.30
2023-05-02T22:17:13.173Z,28.40
2023-05-02T22:19:40.826Z,28.40
2023-05-02T22:22:09.055Z,28.40
2023-05-02T22:24:37.188Z,28.40
2023-05-02T22:27:05.038Z,28.40
2023-05-02T22:29:32.972Z,28.40
2023-05-02T22:32:00.882Z,28.30
2023-05-02T22:34:30.048Z,28.30
2023-05-02T22:36:59.440Z,28.30
2023-05-02T22:39:28.452Z,28.30
2023-05-02T22:41:59.055Z,28.20
2023-05-02T22:44:26.725Z,28.20
2023-05-02T22:46:54.938Z,28.20
2023-05-02T22:49:22.643Z,28.30
2023-05-02T22:51:51.527Z,28.20
2023-05-02T22:54:22.032Z,28.10
2023-05-02T22:56:49.675Z,28.20
2023-05-02T22:59:22.118Z,28.30
2023-05-02T23:01:50.112Z,28.30
2023-05-02T23:04:20.887Z,28.20
2023-05-02T23:06:49.682Z,28.20
2023-05-02T23:09:17.525Z,28.20
2023-05-02T23:11:46.887Z,28.20
2023-05-02T23:14:14.636Z,28.30
2023-05-02T23:16:46.763Z,28.40
2023-05-02T23:19:16.246Z,28.50
2023-05-02T23:21:44.813Z,28.50
2023-05-02T23:24:13.425Z,28.50
2023-05-02T23:26:41.055Z,28.50
2023-05-02T23:29:09.187Z,28.60
2023-05-02T23:31:37.127Z,28.70
2023-05-02T23:34:05.677Z,28.70
2023-05-02T23:36:33.573Z,28.80
2023-05-02T23:39:07.501Z,28.80
2023-05-02T23:41:35.089Z,28.90
2023-05-02T23:44:02.982Z,29.00
2023-05-02T23:46:30.744Z,29.10
2023-05-02T23:48:59.837Z,29.10
2023-05-02T23:51:29.705Z,29.10
2023-05-02T23:54:00.496Z,29.10
2023-05-02T23:56:30.588Z,29.20
2023-05-02T23:58:58.327Z,29.30
